Check out our new PWSWeather beta!
PWSweather.com
Personal Weather Stations
Station Observations
MICROSHIP
Friday Harbor, Friday Harbor, WA 98250

Friday HarborFriday Harbor, WA 98250

Lat: 48.538, Lon: -123.016

Elevation: 16

Station Type: Ambient Weather WS-1001-WIFI ObserverIP

https://microship.com/

High Low Average
Temperature 46.4°F8.0°C 38.3°F3.5°C 42.0°F5.6°C
Dew Point 46.1°F7.8°C -52.4°F-46.9°C 6.1°F-14.4°C
Winds 8.9 mph 14.3 kmh Calm Calm 3.0 mph SSW4.8 kmh SSW
Wind Gusts 17.4 mph28.0 kmh -- 6.0 mph9.7 kmh
Humidity 99% 1% 44%
Pressure 30.84 in1044.4 mb 30.50 in1032.8 mb -
Precipitation 0.00 in0.0 mm - -
Hour Temp Dew Point Humidity Winds Wind Gusts Pressure Precip Precip Rate Daily Precip Total
12:00 AM 42.8°F6.0°C -23.7°F-30.9°C 5% 8.9 mph WSW14.3 kmh WSW 17.4 mph28.0 kmh 30.50 in1032.8 mb 0.00 in0.0 mm 0.00 in0.0 mm 0.00 in0.0 mm
12:35 AM 43.2°F6.2°C -51.1°F-46.2°C 1% 2.4 mph WSW3.9 kmh WSW 4.9 mph7.9 kmh 30.52 in1033.5 mb 0.00 in0.0 mm 0.00 in0.0 mm 0.00 in0.0 mm
12:40 AM 43.1°F6.2°C -41.8°F-41.0°C 2% 5.4 mph SW8.7 kmh SW 15.0 mph24.1 kmh 30.53 in1033.9 mb 0.00 in0.0 mm 0.00 in0.0 mm 0.00 in0.0 mm
12:45 AM 42.9°F6.1°C -34.8°F-37.1°C 3% 7.4 mph SW11.9 kmh SW 15.0 mph24.1 kmh 30.53 in1033.9 mb 0.00 in0.0 mm 0.00 in0.0 mm 0.00 in0.0 mm
12:50 AM 42.6°F5.9°C -30.9°F-34.9°C 3% 6.6 mph SW10.6 kmh SW 12.3 mph19.8 kmh 30.53 in1033.9 mb 0.00 in0.0 mm 0.00 in0.0 mm 0.00 in0.0 mm
12:55 AM 42.4°F5.8°C -32.2°F-35.7°C 3% 6.4 mph SW10.3 kmh SW 17.4 mph28.0 kmh 30.54 in1034.2 mb 0.00 in0.0 mm 0.00 in0.0 mm 0.00 in0.0 mm
02:40 AM 41.5°F5.3°C -52.2°F-46.8°C 1% 6.0 mph SW9.7 kmh SW 7.4 mph11.9 kmh 30.60 in1036.2 mb 0.00 in0.0 mm 0.00 in0.0 mm 0.00 in0.0 mm
02:45 AM 41.5°F5.3°C -46.5°F-43.6°C 2% 5.3 mph SW8.5 kmh SW 12.3 mph19.8 kmh 30.60 in1036.2 mb 0.00 in0.0 mm 0.00 in0.0 mm 0.00 in0.0 mm
02:50 AM 41.5°F5.3°C -48.0°F-44.4°C 1% 5.8 mph SW9.3 kmh SW 12.3 mph19.8 kmh 30.60 in1036.2 mb 0.00 in0.0 mm 0.00 in0.0 mm 0.00 in0.0 mm
04:05 AM 41.9°F5.5°C -41.5°F-40.8°C 2% 7.9 mph WSW12.7 kmh WSW 15.0 mph24.1 kmh 30.63 in1037.3 mb 0.00 in0.0 mm 0.00 in0.0 mm 0.00 in0.0 mm
04:10 AM 41.7°F5.4°C -32.4°F-35.8°C 3% 7.0 mph SW11.3 kmh SW 17.4 mph28.0 kmh 30.63 in1037.3 mb 0.00 in0.0 mm 0.00 in0.0 mm 0.00 in0.0 mm
04:15 AM 41.7°F5.4°C -35.1°F-37.3°C 3% 5.8 mph WSW9.3 kmh WSW 9.8 mph15.8 kmh 30.63 in1037.3 mb 0.00 in0.0 mm 0.00 in0.0 mm 0.00 in0.0 mm
04:20 AM 41.7°F5.4°C -42.4°F-41.3°C 2% 6.3 mph SW10.1 kmh SW 12.3 mph19.8 kmh 30.63 in1037.3 mb 0.00 in0.0 mm 0.00 in0.0 mm 0.00 in0.0 mm
04:25 AM 41.6°F5.3°C -38.4°F-39.1°C 2% 5.6 mph SW9.0 kmh SW 15.0 mph24.1 kmh 30.63 in1037.3 mb 0.00 in0.0 mm 0.00 in0.0 mm 0.00 in0.0 mm
04:30 AM 41.5°F5.3°C -48.0°F-44.4°C 1% 6.3 mph SW10.1 kmh SW 12.3 mph19.8 kmh 30.63 in1037.3 mb 0.00 in0.0 mm 0.00 in0.0 mm 0.00 in0.0 mm
04:35 AM 41.5°F5.3°C -50.3°F-45.7°C 1% 5.2 mph SW8.4 kmh SW 12.3 mph19.8 kmh 30.63 in1037.3 mb 0.00 in0.0 mm 0.00 in0.0 mm 0.00 in0.0 mm
04:40 AM 41.5°F5.3°C -52.2°F-46.8°C 1% 5.5 mph WSW8.9 kmh WSW 12.3 mph19.8 kmh 30.63 in1037.3 mb 0.00 in0.0 mm 0.00 in0.0 mm 0.00 in0.0 mm
05:25 AM 41.5°F5.3°C -52.2°F-46.8°C 1% 8.1 mph SW13.0 kmh SW 12.3 mph19.8 kmh 30.66 in1038.3 mb 0.00 in0.0 mm 0.00 in0.0 mm 0.00 in0.0 mm
05:30 AM 41.4°F5.2°C -40.3°F-40.2°C 2% 8.2 mph SW13.2 kmh SW 15.0 mph24.1 kmh 30.66 in1038.3 mb 0.00 in0.0 mm 0.00 in0.0 mm 0.00 in0.0 mm
05:35 AM 41.4°F5.2°C -26.3°F-32.4°C 5% 5.9 mph SW9.5 kmh SW 9.8 mph15.8 kmh 30.66 in1038.3 mb 0.00 in0.0 mm 0.00 in0.0 mm 0.00 in0.0 mm
05:40 AM 41.2°F5.1°C -23.3°F-30.7°C 5% 6.5 mph SW10.5 kmh SW 12.3 mph19.8 kmh 30.66 in1038.3 mb 0.00 in0.0 mm 0.00 in0.0 mm 0.00 in0.0 mm
05:45 AM 41.0°F5.0°C -20.2°F-29.0°C 6% 3.2 mph WSW5.1 kmh WSW 15.0 mph24.1 kmh 30.66 in1038.3 mb 0.00 in0.0 mm 0.00 in0.0 mm 0.00 in0.0 mm
05:50 AM 40.8°F4.9°C -19.1°F-28.4°C 7% 5.7 mph WSW9.2 kmh WSW 9.8 mph15.8 kmh 30.66 in1038.3 mb 0.00 in0.0 mm 0.00 in0.0 mm 0.00 in0.0 mm
05:55 AM 40.7°F4.8°C -18.2°F-27.9°C 7% 4.1 mph SW6.6 kmh SW 7.4 mph11.9 kmh 30.67 in1038.6 mb 0.00 in0.0 mm 0.00 in0.0 mm 0.00 in0.0 mm
06:00 AM 40.5°F4.7°C -18.9°F-28.3°C 7% 4.0 mph SW6.4 kmh SW 9.8 mph15.8 kmh 30.67 in1038.6 mb 0.00 in0.0 mm 0.00 in0.0 mm 0.00 in0.0 mm
06:05 AM 40.4°F4.7°C -20.5°F-29.2°C 6% 4.9 mph SW7.9 kmh SW 9.8 mph15.8 kmh 30.67 in1038.6 mb 0.00 in0.0 mm 0.00 in0.0 mm 0.00 in0.0 mm
06:10 AM 40.3°F4.6°C -22.4°F-30.2°C 6% 5.0 mph SW8.0 kmh SW 9.8 mph15.8 kmh 30.68 in1038.9 mb 0.00 in0.0 mm 0.00 in0.0 mm 0.00 in0.0 mm
06:15 AM 40.3°F4.6°C -24.1°F-31.2°C 5% 4.3 mph SW6.9 kmh SW 9.8 mph15.8 kmh 30.67 in1038.6 mb 0.00 in0.0 mm 0.00 in0.0 mm 0.00 in0.0 mm
06:20 AM 40.3°F4.6°C -26.5°F-32.5°C 5% 3.1 mph WSW5.0 kmh WSW 7.4 mph11.9 kmh 30.68 in1038.9 mb 0.00 in0.0 mm 0.00 in0.0 mm 0.00 in0.0 mm
06:25 AM 40.3°F4.6°C -25.1°F-31.7°C 5% 3.0 mph SW4.8 kmh SW 7.4 mph11.9 kmh 30.68 in1038.9 mb 0.00 in0.0 mm 0.00 in0.0 mm 0.00 in0.0 mm
06:30 AM 40.3°F4.6°C -26.8°F-32.7°C 5% 3.8 mph WSW6.1 kmh WSW 9.8 mph15.8 kmh 30.68 in1038.9 mb 0.00 in0.0 mm 0.00 in0.0 mm 0.00 in0.0 mm
06:35 AM 40.3°F4.6°C -22.0°F-30.0°C 6% 3.2 mph WSW5.1 kmh WSW 7.4 mph11.9 kmh 30.68 in1038.9 mb 0.00 in0.0 mm 0.00 in0.0 mm 0.00 in0.0 mm
06:40 AM 40.2°F4.6°C -19.7°F-28.7°C 7% 4.6 mph WSW7.4 kmh WSW 9.8 mph15.8 kmh 30.68 in1038.9 mb 0.00 in0.0 mm 0.00 in0.0 mm 0.00 in0.0 mm
06:45 AM 40.1°F4.5°C -16.7°F-27.1°C 8% 5.6 mph SW9.0 kmh SW 15.0 mph24.1 kmh 30.69 in1039.3 mb 0.00 in0.0 mm 0.00 in0.0 mm 0.00 in0.0 mm
06:50 AM 40.1°F4.5°C -14.9°F-26.1°C 9% 6.6 mph SW10.6 kmh SW 12.3 mph19.8 kmh 30.69 in1039.3 mb 0.00 in0.0 mm 0.00 in0.0 mm 0.00 in0.0 mm
06:55 AM 40.1°F4.5°C -13.4°F-25.2°C 9% 4.1 mph WSW6.6 kmh WSW 9.8 mph15.8 kmh 30.69 in1039.3 mb 0.00 in0.0 mm 0.00 in0.0 mm 0.00 in0.0 mm
07:00 AM 39.9°F4.4°C -10.8°F-23.8°C 11% 3.1 mph W5.0 kmh W 7.4 mph11.9 kmh 30.69 in1039.3 mb 0.00 in0.0 mm 0.00 in0.0 mm 0.00 in0.0 mm
07:05 AM 39.8°F4.3°C -11.6°F-24.2°C 10% 2.8 mph WSW4.5 kmh WSW 7.4 mph11.9 kmh 30.69 in1039.3 mb 0.00 in0.0 mm 0.00 in0.0 mm 0.00 in0.0 mm
07:10 AM 39.7°F4.3°C -10.9°F-23.8°C 11% 3.4 mph WSW5.5 kmh WSW 9.8 mph15.8 kmh 30.69 in1039.3 mb 0.00 in0.0 mm 0.00 in0.0 mm 0.00 in0.0 mm
07:15 AM 39.6°F4.2°C -10.7°F-23.7°C 11% 2.1 mph WSW3.4 kmh WSW 4.9 mph7.9 kmh 30.69 in1039.3 mb 0.00 in0.0 mm 0.00 in0.0 mm 0.00 in0.0 mm
07:20 AM 39.6°F4.2°C -10.5°F-23.6°C 11% 2.6 mph W4.2 kmh W 7.4 mph11.9 kmh 30.70 in1039.6 mb 0.00 in0.0 mm 0.00 in0.0 mm 0.00 in0.0 mm
07:25 AM 39.4°F4.1°C -10.3°F-23.5°C 11% 0.8 mph WSW1.3 kmh WSW 4.9 mph7.9 kmh 30.70 in1039.6 mb 0.00 in0.0 mm 0.00 in0.0 mm 0.00 in0.0 mm
07:30 AM 39.4°F4.1°C -10.4°F-23.6°C 11% 0.5 mph WNW0.8 kmh WNW 4.9 mph7.9 kmh 30.70 in1039.6 mb 0.00 in0.0 mm 0.00 in0.0 mm 0.00 in0.0 mm
07:35 AM 39.4°F4.1°C -10.7°F-23.7°C 11% 0.6 mph W1.0 kmh W 4.9 mph7.9 kmh 30.71 in1040.0 mb 0.00 in0.0 mm 0.00 in0.0 mm 0.00 in0.0 mm
07:40 AM 39.4°F4.1°C -10.7°F-23.7°C 11% Calm Calm 2.5 mph4.0 kmh 30.71 in1040.0 mb 0.00 in0.0 mm 0.00 in0.0 mm 0.00 in0.0 mm
07:45 AM 39.3°F4.1°C -9.8°F-23.2°C 12% 0.4 mph W0.6 kmh W 4.9 mph7.9 kmh 30.71 in1040.0 mb 0.00 in0.0 mm 0.00 in0.0 mm 0.00 in0.0 mm
07:50 AM 39.2°F4.0°C -8.4°F-22.4°C 12% 0.7 mph WNW1.1 kmh WNW 4.9 mph7.9 kmh 30.71 in1040.0 mb 0.00 in0.0 mm 0.00 in0.0 mm 0.00 in0.0 mm
07:55 AM 39.2°F4.0°C -7.8°F-22.1°C 13% 0.5 mph W0.8 kmh W 4.9 mph7.9 kmh 30.72 in1040.3 mb 0.00 in0.0 mm 0.00 in0.0 mm 0.00 in0.0 mm
08:00 AM 39.2°F4.0°C -9.5°F-23.1°C 12% 0.8 mph W1.3 kmh W 2.5 mph4.0 kmh 30.72 in1040.3 mb 0.00 in0.0 mm 0.00 in0.0 mm 0.00 in0.0 mm
08:05 AM 39.2°F4.0°C -10.8°F-23.8°C 11% 0.9 mph W1.4 kmh W 2.5 mph4.0 kmh 30.72 in1040.3 mb 0.00 in0.0 mm 0.00 in0.0 mm 0.00 in0.0 mm
08:10 AM 39.2°F4.0°C -10.8°F-23.8°C 11% Calm Calm 2.5 mph4.0 kmh 30.73 in1040.6 mb 0.00 in0.0 mm 0.00 in0.0 mm 0.00 in0.0 mm
08:15 AM 39.2°F4.0°C -9.6°F-23.1°C 12% Calm Calm -- 30.73 in1040.6 mb 0.00 in0.0 mm 0.00 in0.0 mm 0.00 in0.0 mm
08:20 AM 39.3°F4.1°C -10.3°F-23.5°C 11% Calm Calm -- 30.73 in1040.6 mb 0.00 in0.0 mm 0.00 in0.0 mm 0.00 in0.0 mm
08:25 AM 39.4°F4.1°C -11.2°F-24.0°C 11% Calm Calm -- 30.73 in1040.6 mb 0.00 in0.0 mm 0.00 in0.0 mm 0.00 in0.0 mm
08:30 AM 39.5°F4.2°C -10.9°F-23.8°C 11% Calm Calm -- 30.73 in1040.6 mb 0.00 in0.0 mm 0.00 in0.0 mm 0.00 in0.0 mm
08:35 AM 39.6°F4.2°C -14.5°F-25.8°C 9% Calm Calm -- 30.73 in1040.6 mb 0.00 in0.0 mm 0.00 in0.0 mm 0.00 in0.0 mm
08:40 AM 39.8°F4.3°C -17.2°F-27.3°C 8% Calm Calm -- 30.73 in1040.6 mb 0.00 in0.0 mm 0.00 in0.0 mm 0.00 in0.0 mm
08:45 AM 40.0°F4.4°C -18.7°F-28.2°C 7% Calm Calm -- 30.73 in1040.6 mb 0.00 in0.0 mm 0.00 in0.0 mm 0.00 in0.0 mm
08:50 AM 40.3°F4.6°C -18.2°F-27.9°C 7% 1.8 mph SW2.9 kmh SW 7.4 mph11.9 kmh 30.73 in1040.6 mb 0.00 in0.0 mm 0.00 in0.0 mm 0.00 in0.0 mm
08:55 AM 40.6°F4.8°C -20.1°F-28.9°C 7% 4.4 mph SW7.1 kmh SW 7.4 mph11.9 kmh 30.74 in1041.0 mb 0.00 in0.0 mm 0.00 in0.0 mm 0.00 in0.0 mm
09:00 AM 40.8°F4.9°C -17.2°F-27.3°C 8% 3.5 mph SW5.6 kmh SW 7.4 mph11.9 kmh 30.74 in1041.0 mb 0.00 in0.0 mm 0.00 in0.0 mm 0.00 in0.0 mm
09:05 AM 41.0°F5.0°C -15.8°F-26.6°C 8% 3.4 mph SW5.5 kmh SW 7.4 mph11.9 kmh 30.74 in1041.0 mb 0.00 in0.0 mm 0.00 in0.0 mm 0.00 in0.0 mm
09:10 AM 41.2°F5.1°C -13.9°F-25.5°C 9% 2.7 mph SW4.3 kmh SW 9.8 mph15.8 kmh 30.74 in1041.0 mb 0.00 in0.0 mm 0.00 in0.0 mm 0.00 in0.0 mm
09:15 AM 41.2°F5.1°C -13.1°F-25.1°C 9% 2.9 mph SW4.7 kmh SW 7.4 mph11.9 kmh 30.74 in1041.0 mb 0.00 in0.0 mm 0.00 in0.0 mm 0.00 in0.0 mm
09:20 AM 41.2°F5.1°C -13.3°F-25.2°C 9% 3.1 mph SW5.0 kmh SW 9.8 mph15.8 kmh 30.74 in1041.0 mb 0.00 in0.0 mm 0.00 in0.0 mm 0.00 in0.0 mm
09:25 AM 41.2°F5.1°C -12.3°F-24.6°C 9% 1.4 mph SW2.3 kmh SW 4.9 mph7.9 kmh 30.74 in1041.0 mb 0.00 in0.0 mm 0.00 in0.0 mm 0.00 in0.0 mm
09:30 AM 41.4°F5.2°C -12.9°F-24.9°C 9% Calm Calm -- 30.74 in1041.0 mb 0.00 in0.0 mm 0.00 in0.0 mm 0.00 in0.0 mm
09:35 AM 41.4°F5.2°C -12.3°F-24.6°C 9% Calm Calm -- 30.75 in1041.3 mb 0.00 in0.0 mm 0.00 in0.0 mm 0.00 in0.0 mm
09:40 AM 41.4°F5.2°C -13.1°F-25.1°C 9% Calm Calm -- 30.75 in1041.3 mb 0.00 in0.0 mm 0.00 in0.0 mm 0.00 in0.0 mm
09:45 AM 41.4°F5.2°C -13.0°F-25.0°C 9% 1.5 mph WSW2.4 kmh WSW 4.9 mph7.9 kmh 30.75 in1041.3 mb 0.00 in0.0 mm 0.00 in0.0 mm 0.00 in0.0 mm
09:50 AM 41.5°F5.3°C -11.5°F-24.2°C 10% 2.2 mph SW3.5 kmh SW 4.9 mph7.9 kmh 30.76 in1041.7 mb 0.00 in0.0 mm 0.00 in0.0 mm 0.00 in0.0 mm
09:55 AM 41.5°F5.3°C -12.9°F-24.9°C 9% 3.5 mph SW5.6 kmh SW 7.4 mph11.9 kmh 30.76 in1041.7 mb 0.00 in0.0 mm 0.00 in0.0 mm 0.00 in0.0 mm
10:00 AM 41.5°F5.3°C -14.2°F-25.7°C 9% 2.2 mph SW3.5 kmh SW 4.9 mph7.9 kmh 30.76 in1041.7 mb 0.00 in0.0 mm 0.00 in0.0 mm 0.00 in0.0 mm
10:05 AM 41.6°F5.3°C -14.0°F-25.6°C 9% 2.4 mph SW3.9 kmh SW 4.9 mph7.9 kmh 30.76 in1041.7 mb 0.00 in0.0 mm 0.00 in0.0 mm 0.00 in0.0 mm
10:10 AM 41.7°F5.4°C -14.4°F-25.8°C 8% 1.9 mph SW3.1 kmh SW 4.9 mph7.9 kmh 30.76 in1041.7 mb 0.00 in0.0 mm 0.00 in0.0 mm 0.00 in0.0 mm
10:15 AM 41.9°F5.5°C -16.0°F-26.7°C 8% 2.2 mph SW3.5 kmh SW 7.4 mph11.9 kmh 30.76 in1041.7 mb 0.00 in0.0 mm 0.00 in0.0 mm 0.00 in0.0 mm
10:20 AM 41.9°F5.5°C -21.1°F-29.5°C 6% 3.8 mph SW6.1 kmh SW 7.4 mph11.9 kmh 30.76 in1041.7 mb 0.00 in0.0 mm 0.00 in0.0 mm 0.00 in0.0 mm
10:25 AM 42.1°F5.6°C -24.1°F-31.2°C 5% 4.0 mph SW6.4 kmh SW 7.4 mph11.9 kmh 30.76 in1041.7 mb 0.00 in0.0 mm 0.00 in0.0 mm 0.00 in0.0 mm
10:30 AM 42.1°F5.6°C -28.0°F-33.3°C 4% 5.0 mph SW8.0 kmh SW 7.4 mph11.9 kmh 30.77 in1042.0 mb 0.00 in0.0 mm 0.00 in0.0 mm 0.00 in0.0 mm
10:35 AM 42.3°F5.7°C -30.9°F-34.9°C 3% 3.4 mph WSW5.5 kmh WSW 7.4 mph11.9 kmh 30.77 in1042.0 mb 0.00 in0.0 mm 0.00 in0.0 mm 0.00 in0.0 mm
10:50 AM -- -- - - N N -- 30.77 in1042.0 mb 0.00 in0.0 mm 0.00 in0.0 mm 0.00 in0.0 mm
10:55 AM 43.1°F6.2°C 42.9°F6.1°C 99% 4.0 mph SW6.4 kmh SW 9.8 mph15.8 kmh 30.77 in1042.0 mb 0.00 in0.0 mm 0.00 in0.0 mm 0.00 in0.0 mm
11:00 AM 43.4°F6.3°C 43.1°F6.2°C 99% 2.9 mph SW4.7 kmh SW 9.8 mph15.8 kmh 30.77 in1042.0 mb 0.00 in0.0 mm 0.00 in0.0 mm 0.00 in0.0 mm
11:05 AM 43.8°F6.6°C 43.6°F6.4°C 99% 1.3 mph WSW2.1 kmh WSW 4.9 mph7.9 kmh 30.77 in1042.0 mb 0.00 in0.0 mm 0.00 in0.0 mm 0.00 in0.0 mm
11:10 AM 44.2°F6.8°C 43.9°F6.6°C 99% Calm Calm -- 30.77 in1042.0 mb 0.00 in0.0 mm 0.00 in0.0 mm 0.00 in0.0 mm
11:15 AM 44.5°F6.9°C 44.3°F6.8°C 99% 4.0 mph SSW6.4 kmh SSW 12.3 mph19.8 kmh 30.77 in1042.0 mb 0.00 in0.0 mm 0.00 in0.0 mm 0.00 in0.0 mm
11:20 AM 44.8°F7.1°C 44.5°F6.9°C 99% 3.5 mph SW5.6 kmh SW 7.4 mph11.9 kmh 30.77 in1042.0 mb 0.00 in0.0 mm 0.00 in0.0 mm 0.00 in0.0 mm
11:25 AM 44.9°F7.2°C 44.6°F7.0°C 99% 1.8 mph WSW2.9 kmh WSW 7.4 mph11.9 kmh 30.77 in1042.0 mb 0.00 in0.0 mm 0.00 in0.0 mm 0.00 in0.0 mm
11:30 AM 45.1°F7.3°C 44.8°F7.1°C 99% 2.2 mph W3.5 kmh W 7.4 mph11.9 kmh 30.77 in1042.0 mb 0.00 in0.0 mm 0.00 in0.0 mm 0.00 in0.0 mm
11:35 AM 45.1°F7.3°C 44.8°F7.1°C 99% 2.4 mph WSW3.9 kmh WSW 7.4 mph11.9 kmh 30.77 in1042.0 mb 0.00 in0.0 mm 0.00 in0.0 mm 0.00 in0.0 mm
11:40 AM 45.2°F7.3°C 45.0°F7.2°C 99% 3.7 mph WSW6.0 kmh WSW 7.4 mph11.9 kmh 30.77 in1042.0 mb 0.00 in0.0 mm 0.00 in0.0 mm 0.00 in0.0 mm
11:45 AM 45.3°F7.4°C 44.9°F7.2°C 99% 4.7 mph WNW7.6 kmh WNW 9.8 mph15.8 kmh 30.77 in1042.0 mb 0.00 in0.0 mm 0.00 in0.0 mm 0.00 in0.0 mm
11:50 AM 45.5°F7.5°C 44.4°F6.9°C 96% 1.4 mph W2.3 kmh W 4.9 mph7.9 kmh 30.78 in1042.3 mb 0.00 in0.0 mm 0.00 in0.0 mm 0.00 in0.0 mm
11:55 AM 45.8°F7.7°C 45.1°F7.3°C 97% 3.0 mph WNW4.8 kmh WNW 9.8 mph15.8 kmh 30.77 in1042.0 mb 0.00 in0.0 mm 0.00 in0.0 mm 0.00 in0.0 mm
12:00 PM 45.9°F7.7°C 45.6°F7.6°C 99% 6.5 mph WNW10.5 kmh WNW 9.8 mph15.8 kmh 30.77 in1042.0 mb 0.00 in0.0 mm 0.00 in0.0 mm 0.00 in0.0 mm
12:05 PM 45.9°F7.7°C 45.4°F7.4°C 98% 5.0 mph WSW8.0 kmh WSW 9.8 mph15.8 kmh 30.77 in1042.0 mb 0.00 in0.0 mm 0.00 in0.0 mm 0.00 in0.0 mm
12:10 PM 46.0°F7.8°C 45.4°F7.4°C 98% 4.1 mph W6.6 kmh W 9.8 mph15.8 kmh 30.77 in1042.0 mb 0.00 in0.0 mm 0.00 in0.0 mm 0.00 in0.0 mm
12:15 PM 46.0°F7.8°C 45.7°F7.6°C 99% 5.9 mph WSW9.5 kmh WSW 12.3 mph19.8 kmh 30.77 in1042.0 mb 0.00 in0.0 mm 0.00 in0.0 mm 0.00 in0.0 mm
12:20 PM 46.0°F7.8°C 45.7°F7.6°C 99% 5.7 mph WSW9.2 kmh WSW 9.8 mph15.8 kmh 30.77 in1042.0 mb 0.00 in0.0 mm 0.00 in0.0 mm 0.00 in0.0 mm
12:25 PM 45.9°F7.7°C 45.7°F7.6°C 99% 3.7 mph WSW6.0 kmh WSW 9.8 mph15.8 kmh 30.77 in1042.0 mb 0.00 in0.0 mm 0.00 in0.0 mm 0.00 in0.0 mm
12:30 PM 45.9°F7.7°C 45.6°F7.6°C 99% 3.1 mph W5.0 kmh W 9.8 mph15.8 kmh 30.78 in1042.3 mb 0.00 in0.0 mm 0.00 in0.0 mm 0.00 in0.0 mm
12:35 PM 45.9°F7.7°C 45.6°F7.6°C 99% 3.2 mph W5.1 kmh W 7.4 mph11.9 kmh 30.78 in1042.3 mb 0.00 in0.0 mm 0.00 in0.0 mm 0.00 in0.0 mm
12:40 PM 45.9°F7.7°C 45.6°F7.6°C 99% 2.4 mph W3.9 kmh W 7.4 mph11.9 kmh 30.77 in1042.0 mb 0.00 in0.0 mm 0.00 in0.0 mm 0.00 in0.0 mm
12:45 PM 45.7°F7.6°C 45.4°F7.4°C 99% 1.1 mph WNW1.8 kmh WNW 7.4 mph11.9 kmh 30.78 in1042.3 mb 0.00 in0.0 mm 0.00 in0.0 mm 0.00 in0.0 mm
12:50 PM 45.7°F7.6°C 45.4°F7.4°C 99% 2.7 mph NW4.3 kmh NW 9.8 mph15.8 kmh 30.78 in1042.3 mb 0.00 in0.0 mm 0.00 in0.0 mm 0.00 in0.0 mm
12:55 PM 45.6°F7.6°C 45.3°F7.4°C 99% 1.5 mph WSW2.4 kmh WSW 7.4 mph11.9 kmh 30.78 in1042.3 mb 0.00 in0.0 mm 0.00 in0.0 mm 0.00 in0.0 mm
01:00 PM 45.5°F7.5°C 45.2°F7.3°C 99% 1.2 mph W1.9 kmh W 7.4 mph11.9 kmh 30.78 in1042.3 mb 0.00 in0.0 mm 0.00 in0.0 mm 0.00 in0.0 mm
01:05 PM 45.3°F7.4°C 45.1°F7.3°C 99% 4.6 mph WNW7.4 kmh WNW 9.8 mph15.8 kmh 30.77 in1042.0 mb 0.00 in0.0 mm 0.00 in0.0 mm 0.00 in0.0 mm
01:10 PM 45.2°F7.3°C 44.9°F7.2°C 99% 1.2 mph NNE1.9 kmh NNE 4.9 mph7.9 kmh 30.77 in1042.0 mb 0.00 in0.0 mm 0.00 in0.0 mm 0.00 in0.0 mm
01:15 PM 45.1°F7.3°C 44.8°F7.1°C 99% 0.2 mph NE0.3 kmh NE 2.5 mph4.0 kmh 30.77 in1042.0 mb 0.00 in0.0 mm 0.00 in0.0 mm 0.00 in0.0 mm
01:20 PM 45.1°F7.3°C 44.8°F7.1°C 99% 0.6 mph NE1.0 kmh NE 2.5 mph4.0 kmh 30.78 in1042.3 mb 0.00 in0.0 mm 0.00 in0.0 mm 0.00 in0.0 mm
01:25 PM 45.3°F7.4°C 45.0°F7.2°C 99% 1.0 mph NNE1.6 kmh NNE 4.9 mph7.9 kmh 30.78 in1042.3 mb 0.00 in0.0 mm 0.00 in0.0 mm 0.00 in0.0 mm
01:30 PM 45.3°F7.4°C 45.0°F7.2°C 99% 1.6 mph NE2.6 kmh NE 4.9 mph7.9 kmh 30.78 in1042.3 mb 0.00 in0.0 mm 0.00 in0.0 mm 0.00 in0.0 mm
01:35 PM 45.5°F7.5°C 45.2°F7.3°C 99% 3.9 mph NE6.3 kmh NE 7.4 mph11.9 kmh 30.78 in1042.3 mb 0.00 in0.0 mm 0.00 in0.0 mm 0.00 in0.0 mm
01:40 PM 45.5°F7.5°C 45.2°F7.3°C 99% 4.6 mph NE7.4 kmh NE 7.4 mph11.9 kmh 30.78 in1042.3 mb 0.00 in0.0 mm 0.00 in0.0 mm 0.00 in0.0 mm
01:45 PM 45.4°F7.4°C 45.1°F7.3°C 99% 4.8 mph NE7.7 kmh NE 7.4 mph11.9 kmh 30.77 in1042.0 mb 0.00 in0.0 mm 0.00 in0.0 mm 0.00 in0.0 mm
01:50 PM 45.2°F7.3°C 45.0°F7.2°C 99% 4.0 mph NE6.4 kmh NE 9.8 mph15.8 kmh 30.78 in1042.3 mb 0.00 in0.0 mm 0.00 in0.0 mm 0.00 in0.0 mm
01:55 PM 45.1°F7.3°C 44.8°F7.1°C 99% 3.7 mph NE6.0 kmh NE 7.4 mph11.9 kmh 30.77 in1042.0 mb 0.00 in0.0 mm 0.00 in0.0 mm 0.00 in0.0 mm
02:00 PM 45.0°F7.2°C 44.7°F7.1°C 99% 2.0 mph NE3.2 kmh NE 7.4 mph11.9 kmh 30.78 in1042.3 mb 0.00 in0.0 mm 0.00 in0.0 mm 0.00 in0.0 mm
02:05 PM 45.0°F7.2°C 44.7°F7.1°C 99% 1.0 mph NNE1.6 kmh NNE 4.9 mph7.9 kmh 30.78 in1042.3 mb 0.00 in0.0 mm 0.00 in0.0 mm 0.00 in0.0 mm
02:10 PM 45.1°F7.3°C 44.8°F7.1°C 99% 0.4 mph NNE0.6 kmh NNE 4.9 mph7.9 kmh 30.78 in1042.3 mb 0.00 in0.0 mm 0.00 in0.0 mm 0.00 in0.0 mm
02:15 PM 45.4°F7.4°C 45.1°F7.3°C 99% 1.0 mph N1.6 kmh N 4.9 mph7.9 kmh 30.78 in1042.3 mb 0.00 in0.0 mm 0.00 in0.0 mm 0.00 in0.0 mm
02:20 PM 45.8°F7.7°C 45.6°F7.6°C 99% 0.3 mph NE0.5 kmh NE 2.5 mph4.0 kmh 30.77 in1042.0 mb 0.00 in0.0 mm 0.00 in0.0 mm 0.00 in0.0 mm
02:25 PM 46.1°F7.8°C 45.8°F7.7°C 99% 1.1 mph NE1.8 kmh NE 4.9 mph7.9 kmh 30.78 in1042.3 mb 0.00 in0.0 mm 0.00 in0.0 mm 0.00 in0.0 mm
02:30 PM 46.4°F8.0°C 46.1°F7.8°C 99% 1.1 mph NNE1.8 kmh NNE 4.9 mph7.9 kmh 30.78 in1042.3 mb 0.00 in0.0 mm 0.00 in0.0 mm 0.00 in0.0 mm
02:35 PM 46.4°F8.0°C 46.1°F7.8°C 99% 1.3 mph NE2.1 kmh NE 4.9 mph7.9 kmh 30.78 in1042.3 mb 0.00 in0.0 mm 0.00 in0.0 mm 0.00 in0.0 mm
02:40 PM 46.3°F7.9°C 46.1°F7.8°C 99% 0.4 mph NE0.6 kmh NE 2.5 mph4.0 kmh 30.78 in1042.3 mb 0.00 in0.0 mm 0.00 in0.0 mm 0.00 in0.0 mm
02:45 PM 46.2°F7.9°C 45.9°F7.7°C 99% 0.6 mph NNE1.0 kmh NNE 4.9 mph7.9 kmh 30.78 in1042.3 mb 0.00 in0.0 mm 0.00 in0.0 mm 0.00 in0.0 mm
02:50 PM 46.0°F7.8°C 45.8°F7.7°C 99% 0.2 mph NE0.3 kmh NE 2.5 mph4.0 kmh 30.79 in1042.7 mb 0.00 in0.0 mm 0.00 in0.0 mm 0.00 in0.0 mm
02:55 PM 45.9°F7.7°C 45.7°F7.6°C 99% 1.2 mph NE1.9 kmh NE 4.9 mph7.9 kmh 30.79 in1042.7 mb 0.00 in0.0 mm 0.00 in0.0 mm 0.00 in0.0 mm
03:00 PM 45.8°F7.7°C 45.5°F7.5°C 99% 1.0 mph NE1.6 kmh NE 4.9 mph7.9 kmh 30.79 in1042.7 mb 0.00 in0.0 mm 0.00 in0.0 mm 0.00 in0.0 mm
03:05 PM 45.7°F7.6°C 45.4°F7.4°C 99% 1.0 mph NE1.6 kmh NE 4.9 mph7.9 kmh 30.79 in1042.7 mb 0.00 in0.0 mm 0.00 in0.0 mm 0.00 in0.0 mm
03:10 PM 45.7°F7.6°C 45.4°F7.4°C 99% 1.1 mph NE1.8 kmh NE 4.9 mph7.9 kmh 30.79 in1042.7 mb 0.00 in0.0 mm 0.00 in0.0 mm 0.00 in0.0 mm
03:15 PM 45.7°F7.6°C 45.4°F7.4°C 99% 1.1 mph NE1.8 kmh NE 4.9 mph7.9 kmh 30.79 in1042.7 mb 0.00 in0.0 mm 0.00 in0.0 mm 0.00 in0.0 mm
03:20 PM 45.6°F7.6°C 45.4°F7.4°C 99% 1.3 mph NE2.1 kmh NE 7.4 mph11.9 kmh 30.79 in1042.7 mb 0.00 in0.0 mm 0.00 in0.0 mm 0.00 in0.0 mm
03:25 PM 45.5°F7.5°C 45.2°F7.3°C 99% 0.3 mph NE0.5 kmh NE 2.5 mph4.0 kmh 30.79 in1042.7 mb 0.00 in0.0 mm 0.00 in0.0 mm 0.00 in0.0 mm
03:30 PM 45.5°F7.5°C 45.2°F7.3°C 99% Calm Calm 2.5 mph4.0 kmh 30.79 in1042.7 mb 0.00 in0.0 mm 0.00 in0.0 mm 0.00 in0.0 mm
03:35 PM 45.5°F7.5°C 45.2°F7.3°C 99% 0.5 mph NE0.8 kmh NE 4.9 mph7.9 kmh 30.79 in1042.7 mb 0.00 in0.0 mm 0.00 in0.0 mm 0.00 in0.0 mm
03:40 PM 45.5°F7.5°C 45.2°F7.3°C 99% 1.2 mph ENE1.9 kmh ENE 4.9 mph7.9 kmh 30.79 in1042.7 mb 0.00 in0.0 mm 0.00 in0.0 mm 0.00 in0.0 mm
03:45 PM 45.5°F7.5°C 45.2°F7.3°C 99% 1.4 mph E2.3 kmh E 2.5 mph4.0 kmh 30.79 in1042.7 mb 0.00 in0.0 mm 0.00 in0.0 mm 0.00 in0.0 mm
03:50 PM 45.5°F7.5°C 45.2°F7.3°C 99% 1.2 mph ENE1.9 kmh ENE 4.9 mph7.9 kmh 30.80 in1043.0 mb 0.00 in0.0 mm 0.00 in0.0 mm 0.00 in0.0 mm
03:55 PM 45.5°F7.5°C 45.2°F7.3°C 99% 1.2 mph NE1.9 kmh NE 7.4 mph11.9 kmh 30.80 in1043.0 mb 0.00 in0.0 mm 0.00 in0.0 mm 0.00 in0.0 mm
04:00 PM 45.4°F7.4°C 45.1°F7.3°C 99% 1.5 mph ENE2.4 kmh ENE 4.9 mph7.9 kmh 30.80 in1043.0 mb 0.00 in0.0 mm 0.00 in0.0 mm 0.00 in0.0 mm
04:05 PM 45.3°F7.4°C 45.0°F7.2°C 99% 2.8 mph E4.5 kmh E 7.4 mph11.9 kmh 30.80 in1043.0 mb 0.00 in0.0 mm 0.00 in0.0 mm 0.00 in0.0 mm
04:10 PM 45.1°F7.3°C 44.8°F7.1°C 99% 3.9 mph E6.3 kmh E 7.4 mph11.9 kmh 30.80 in1043.0 mb 0.00 in0.0 mm 0.00 in0.0 mm 0.00 in0.0 mm
04:15 PM 45.0°F7.2°C 44.7°F7.1°C 99% 3.6 mph E5.8 kmh E 7.4 mph11.9 kmh 30.80 in1043.0 mb 0.00 in0.0 mm 0.00 in0.0 mm 0.00 in0.0 mm
04:20 PM 44.8°F7.1°C 44.6°F7.0°C 99% 3.7 mph E6.0 kmh E 7.4 mph11.9 kmh 30.80 in1043.0 mb 0.00 in0.0 mm 0.00 in0.0 mm 0.00 in0.0 mm
04:25 PM 44.7°F7.1°C 44.5°F6.9°C 99% 4.7 mph NE7.6 kmh NE 9.8 mph15.8 kmh 30.80 in1043.0 mb 0.00 in0.0 mm 0.00 in0.0 mm 0.00 in0.0 mm
04:30 PM 44.6°F7.0°C 44.3°F6.8°C 99% 4.6 mph ENE7.4 kmh ENE 9.8 mph15.8 kmh 30.80 in1043.0 mb 0.00 in0.0 mm 0.00 in0.0 mm 0.00 in0.0 mm
04:35 PM 44.4°F6.9°C 44.1°F6.7°C 99% 4.4 mph NE7.1 kmh NE 9.8 mph15.8 kmh 30.80 in1043.0 mb 0.00 in0.0 mm 0.00 in0.0 mm 0.00 in0.0 mm
04:40 PM 44.4°F6.9°C 44.1°F6.7°C 99% 3.1 mph NE5.0 kmh NE 7.4 mph11.9 kmh 30.80 in1043.0 mb 0.00 in0.0 mm 0.00 in0.0 mm 0.00 in0.0 mm
04:45 PM 44.2°F6.8°C 43.9°F6.6°C 99% 4.2 mph ENE6.8 kmh ENE 7.4 mph11.9 kmh 30.80 in1043.0 mb 0.00 in0.0 mm 0.00 in0.0 mm 0.00 in0.0 mm
04:50 PM 44.2°F6.8°C 43.9°F6.6°C 99% 1.1 mph ENE1.8 kmh ENE 7.4 mph11.9 kmh 30.79 in1042.7 mb 0.00 in0.0 mm 0.00 in0.0 mm 0.00 in0.0 mm
04:55 PM 44.1°F6.7°C 43.8°F6.6°C 99% 2.2 mph NE3.5 kmh NE 7.4 mph11.9 kmh 30.79 in1042.7 mb 0.00 in0.0 mm 0.00 in0.0 mm 0.00 in0.0 mm
05:00 PM 44.1°F6.7°C 43.8°F6.6°C 99% 1.5 mph ENE2.4 kmh ENE 4.9 mph7.9 kmh 30.79 in1042.7 mb 0.00 in0.0 mm 0.00 in0.0 mm 0.00 in0.0 mm
05:05 PM 44.1°F6.7°C 43.8°F6.6°C 99% 2.4 mph ENE3.9 kmh ENE 9.8 mph15.8 kmh 30.80 in1043.0 mb 0.00 in0.0 mm 0.00 in0.0 mm 0.00 in0.0 mm
05:10 PM 44.0°F6.7°C 43.7°F6.5°C 99% 2.8 mph ENE4.5 kmh ENE 7.4 mph11.9 kmh 30.80 in1043.0 mb 0.00 in0.0 mm 0.00 in0.0 mm 0.00 in0.0 mm
05:15 PM 43.9°F6.6°C 43.6°F6.4°C 99% 3.9 mph ENE6.3 kmh ENE 9.8 mph15.8 kmh 30.79 in1042.7 mb 0.00 in0.0 mm 0.00 in0.0 mm 0.00 in0.0 mm
05:20 PM 43.9°F6.6°C 43.6°F6.4°C 99% 1.8 mph ENE2.9 kmh ENE 7.4 mph11.9 kmh 30.80 in1043.0 mb 0.00 in0.0 mm 0.00 in0.0 mm 0.00 in0.0 mm
05:25 PM 43.7°F6.5°C 43.5°F6.4°C 99% 2.1 mph ENE3.4 kmh ENE 4.9 mph7.9 kmh 30.80 in1043.0 mb 0.00 in0.0 mm 0.00 in0.0 mm 0.00 in0.0 mm
05:30 PM 43.7°F6.5°C 43.4°F6.3°C 99% 4.4 mph E7.1 kmh E 9.8 mph15.8 kmh 30.80 in1043.0 mb 0.00 in0.0 mm 0.00 in0.0 mm 0.00 in0.0 mm
05:35 PM 43.6°F6.4°C 43.3°F6.3°C 99% 2.6 mph ENE4.2 kmh ENE 7.4 mph11.9 kmh 30.80 in1043.0 mb 0.00 in0.0 mm 0.00 in0.0 mm 0.00 in0.0 mm
05:40 PM 43.5°F6.4°C 43.2°F6.2°C 99% 3.8 mph E6.1 kmh E 7.4 mph11.9 kmh 30.80 in1043.0 mb 0.00 in0.0 mm 0.00 in0.0 mm 0.00 in0.0 mm
05:45 PM 43.5°F6.4°C 43.2°F6.2°C 99% 4.5 mph E7.2 kmh E 9.8 mph15.8 kmh 30.80 in1043.0 mb 0.00 in0.0 mm 0.00 in0.0 mm 0.00 in0.0 mm
05:50 PM 43.3°F6.3°C 43.0°F6.1°C 99% 4.5 mph ENE7.2 kmh ENE 9.8 mph15.8 kmh 30.80 in1043.0 mb 0.00 in0.0 mm 0.00 in0.0 mm 0.00 in0.0 mm
05:55 PM 43.3°F6.3°C 43.0°F6.1°C 99% 2.6 mph NE4.2 kmh NE 7.4 mph11.9 kmh 30.80 in1043.0 mb 0.00 in0.0 mm 0.00 in0.0 mm 0.00 in0.0 mm
06:00 PM 43.2°F6.2°C 43.0°F6.1°C 99% 2.2 mph ENE3.5 kmh ENE 4.9 mph7.9 kmh 30.80 in1043.0 mb 0.00 in0.0 mm 0.00 in0.0 mm 0.00 in0.0 mm
06:05 PM 43.2°F6.2°C 42.9°F6.1°C 99% 4.0 mph ENE6.4 kmh ENE 9.8 mph15.8 kmh 30.80 in1043.0 mb 0.00 in0.0 mm 0.00 in0.0 mm 0.00 in0.0 mm
06:10 PM 43.2°F6.2°C 42.9°F6.1°C 99% 2.6 mph ENE4.2 kmh ENE 4.9 mph7.9 kmh 30.80 in1043.0 mb 0.00 in0.0 mm 0.00 in0.0 mm 0.00 in0.0 mm
06:15 PM 43.0°F6.1°C 42.8°F6.0°C 99% 2.3 mph ENE3.7 kmh ENE 4.9 mph7.9 kmh 30.80 in1043.0 mb 0.00 in0.0 mm 0.00 in0.0 mm 0.00 in0.0 mm
07:15 PM 41.2°F5.1°C -52.4°F-46.9°C 1% Calm Calm -- 30.80 in1043.0 mb 0.00 in0.0 mm 0.00 in0.0 mm 0.00 in0.0 mm
07:20 PM 41.2°F5.1°C -43.8°F-42.1°C 2% Calm Calm -- 30.81 in1043.3 mb 0.00 in0.0 mm 0.00 in0.0 mm 0.00 in0.0 mm
07:25 PM 41.0°F5.0°C -34.3°F-36.8°C 3% Calm Calm -- 30.81 in1043.3 mb 0.00 in0.0 mm 0.00 in0.0 mm 0.00 in0.0 mm
07:30 PM 40.8°F4.9°C -38.7°F-39.3°C 2% 1.1 mph WNW1.8 kmh WNW 4.9 mph7.9 kmh 30.81 in1043.3 mb 0.00 in0.0 mm 0.00 in0.0 mm 0.00 in0.0 mm
07:35 PM 40.6°F4.8°C -40.7°F-40.4°C 2% 1.1 mph W1.8 kmh W 2.5 mph4.0 kmh 30.81 in1043.3 mb 0.00 in0.0 mm 0.00 in0.0 mm 0.00 in0.0 mm
07:40 PM 40.5°F4.7°C -38.0°F-38.9°C 3% 0.3 mph WNW0.5 kmh WNW 2.5 mph4.0 kmh 30.81 in1043.3 mb 0.00 in0.0 mm 0.00 in0.0 mm 0.00 in0.0 mm
07:45 PM 40.3°F4.6°C -27.6°F-33.1°C 4% Calm Calm -- 30.81 in1043.3 mb 0.00 in0.0 mm 0.00 in0.0 mm 0.00 in0.0 mm
07:50 PM 40.1°F4.5°C -29.0°F-33.9°C 4% 0.4 mph NW0.6 kmh NW 4.9 mph7.9 kmh 30.81 in1043.3 mb 0.00 in0.0 mm 0.00 in0.0 mm 0.00 in0.0 mm
07:55 PM 40.1°F4.5°C -22.6°F-30.3°C 6% 2.9 mph WNW4.7 kmh WNW 4.9 mph7.9 kmh 30.81 in1043.3 mb 0.00 in0.0 mm 0.00 in0.0 mm 0.00 in0.0 mm
08:00 PM 39.9°F4.4°C -20.8°F-29.3°C 6% 3.2 mph WNW5.1 kmh WNW 4.9 mph7.9 kmh 30.81 in1043.3 mb 0.00 in0.0 mm 0.00 in0.0 mm 0.00 in0.0 mm
08:05 PM 39.7°F4.3°C -19.8°F-28.8°C 7% 2.5 mph WNW4.0 kmh WNW 4.9 mph7.9 kmh 30.81 in1043.3 mb 0.00 in0.0 mm 0.00 in0.0 mm 0.00 in0.0 mm
08:10 PM 39.5°F4.2°C -17.7°F-27.6°C 8% 0.2 mph W0.3 kmh W 4.9 mph7.9 kmh 30.81 in1043.3 mb 0.00 in0.0 mm 0.00 in0.0 mm 0.00 in0.0 mm
08:15 PM 39.3°F4.1°C -19.9°F-28.8°C 7% 2.6 mph W4.2 kmh W 7.4 mph11.9 kmh 30.81 in1043.3 mb 0.00 in0.0 mm 0.00 in0.0 mm 0.00 in0.0 mm
08:20 PM 38.9°F3.8°C -18.1°F-27.8°C 8% 0.7 mph W1.1 kmh W 4.9 mph7.9 kmh 30.81 in1043.3 mb 0.00 in0.0 mm 0.00 in0.0 mm 0.00 in0.0 mm
08:25 PM 38.7°F3.7°C -18.2°F-27.9°C 8% 3.3 mph W5.3 kmh W 7.4 mph11.9 kmh 30.81 in1043.3 mb 0.00 in0.0 mm 0.00 in0.0 mm 0.00 in0.0 mm
08:30 PM 38.6°F3.7°C -17.6°F-27.6°C 8% 2.3 mph W3.7 kmh W 4.9 mph7.9 kmh 30.81 in1043.3 mb 0.00 in0.0 mm 0.00 in0.0 mm 0.00 in0.0 mm
08:35 PM 38.5°F3.6°C -18.0°F-27.8°C 8% 2.2 mph W3.5 kmh W 4.9 mph7.9 kmh 30.81 in1043.3 mb 0.00 in0.0 mm 0.00 in0.0 mm 0.00 in0.0 mm
08:40 PM 38.5°F3.6°C -18.1°F-27.8°C 8% 2.1 mph W3.4 kmh W 4.9 mph7.9 kmh 30.81 in1043.3 mb 0.00 in0.0 mm 0.00 in0.0 mm 0.00 in0.0 mm
08:45 PM 38.5°F3.6°C -17.9°F-27.7°C 8% 2.5 mph W4.0 kmh W 4.9 mph7.9 kmh 30.81 in1043.3 mb 0.00 in0.0 mm 0.00 in0.0 mm 0.00 in0.0 mm
08:50 PM 38.5°F3.6°C -17.7°F-27.6°C 8% 3.0 mph W4.8 kmh W 4.9 mph7.9 kmh 30.81 in1043.3 mb 0.00 in0.0 mm 0.00 in0.0 mm 0.00 in0.0 mm
08:55 PM 38.5°F3.6°C -16.2°F-26.8°C 9% 1.8 mph W2.9 kmh W 4.9 mph7.9 kmh 30.81 in1043.3 mb 0.00 in0.0 mm 0.00 in0.0 mm 0.00 in0.0 mm
09:00 PM 38.5°F3.6°C -14.6°F-25.9°C 9% 0.8 mph WNW1.3 kmh WNW 2.5 mph4.0 kmh 30.81 in1043.3 mb 0.00 in0.0 mm 0.00 in0.0 mm 0.00 in0.0 mm
09:05 PM 38.5°F3.6°C -14.7°F-25.9°C 9% 2.1 mph WNW3.4 kmh WNW 4.9 mph7.9 kmh 30.82 in1043.7 mb 0.00 in0.0 mm 0.00 in0.0 mm 0.00 in0.0 mm
09:10 PM 38.5°F3.6°C -14.7°F-25.9°C 9% 2.2 mph WNW3.5 kmh WNW 4.9 mph7.9 kmh 30.82 in1043.7 mb 0.00 in0.0 mm 0.00 in0.0 mm 0.00 in0.0 mm
09:15 PM 38.3°F3.5°C -12.9°F-24.9°C 10% 2.1 mph W3.4 kmh W 4.9 mph7.9 kmh 30.82 in1043.7 mb 0.00 in0.0 mm 0.00 in0.0 mm 0.00 in0.0 mm
09:20 PM 38.3°F3.5°C -11.5°F-24.2°C 11% 3.4 mph WNW5.5 kmh WNW 7.4 mph11.9 kmh 30.82 in1043.7 mb 0.00 in0.0 mm 0.00 in0.0 mm 0.00 in0.0 mm
09:25 PM 38.4°F3.6°C -12.8°F-24.9°C 10% 2.7 mph WNW4.3 kmh WNW 4.9 mph7.9 kmh 30.83 in1044.0 mb 0.00 in0.0 mm 0.00 in0.0 mm 0.00 in0.0 mm
09:30 PM 38.5°F3.6°C -11.9°F-24.4°C 11% 0.2 mph W0.3 kmh W 2.5 mph4.0 kmh 30.83 in1044.0 mb 0.00 in0.0 mm 0.00 in0.0 mm 0.00 in0.0 mm
09:35 PM 38.5°F3.6°C -9.9°F-23.3°C 12% Calm Calm -- 30.83 in1044.0 mb 0.00 in0.0 mm 0.00 in0.0 mm 0.00 in0.0 mm
09:40 PM 38.5°F3.6°C -11.1°F-23.9°C 11% Calm Calm -- 30.82 in1043.7 mb 0.00 in0.0 mm 0.00 in0.0 mm 0.00 in0.0 mm
09:45 PM 38.5°F3.6°C -8.8°F-22.7°C 12% 0.6 mph W1.0 kmh W 7.4 mph11.9 kmh 30.83 in1044.0 mb 0.00 in0.0 mm 0.00 in0.0 mm 0.00 in0.0 mm
09:50 PM 38.5°F3.6°C -8.0°F-22.2°C 13% Calm Calm -- 30.83 in1044.0 mb 0.00 in0.0 mm 0.00 in0.0 mm 0.00 in0.0 mm
09:55 PM 38.5°F3.6°C -9.2°F-22.9°C 12% Calm Calm -- 30.83 in1044.0 mb 0.00 in0.0 mm 0.00 in0.0 mm 0.00 in0.0 mm
10:00 PM 38.5°F3.6°C -9.0°F-22.8°C 12% Calm Calm -- 30.84 in1044.4 mb 0.00 in0.0 mm 0.00 in0.0 mm 0.00 in0.0 mm
10:05 PM 38.5°F3.6°C -9.2°F-22.9°C 12% Calm Calm -- 30.83 in1044.0 mb 0.00 in0.0 mm 0.00 in0.0 mm 0.00 in0.0 mm
10:10 PM 38.7°F3.7°C -9.3°F-22.9°C 12% 0.6 mph W1.0 kmh W 4.9 mph7.9 kmh 30.84 in1044.4 mb 0.00 in0.0 mm 0.00 in0.0 mm 0.00 in0.0 mm
10:15 PM 38.7°F3.7°C -7.6°F-22.0°C 13% 2.9 mph W4.7 kmh W 4.9 mph7.9 kmh 30.84 in1044.4 mb 0.00 in0.0 mm 0.00 in0.0 mm 0.00 in0.0 mm
10:20 PM 38.7°F3.7°C -6.3°F-21.3°C 14% 2.7 mph W4.3 kmh W 4.9 mph7.9 kmh 30.83 in1044.0 mb 0.00 in0.0 mm 0.00 in0.0 mm 0.00 in0.0 mm
10:25 PM 38.7°F3.7°C -7.4°F-21.9°C 13% 2.5 mph W4.0 kmh W 4.9 mph7.9 kmh 30.84 in1044.4 mb 0.00 in0.0 mm 0.00 in0.0 mm 0.00 in0.0 mm
10:30 PM 38.7°F3.7°C -7.9°F-22.2°C 13% 2.3 mph W3.7 kmh W 7.4 mph11.9 kmh 30.84 in1044.4 mb 0.00 in0.0 mm 0.00 in0.0 mm 0.00 in0.0 mm
10:35 PM 38.8°F3.8°C -7.5°F-21.9°C 13% 2.8 mph W4.5 kmh W 4.9 mph7.9 kmh 30.83 in1044.0 mb 0.00 in0.0 mm 0.00 in0.0 mm 0.00 in0.0 mm
10:40 PM 38.7°F3.7°C -6.4°F-21.3°C 14% 3.0 mph W4.8 kmh W 4.9 mph7.9 kmh 30.83 in1044.0 mb 0.00 in0.0 mm 0.00 in0.0 mm 0.00 in0.0 mm
10:45 PM 38.7°F3.7°C -7.3°F-21.8°C 13% 2.6 mph W4.2 kmh W 4.9 mph7.9 kmh 30.83 in1044.0 mb 0.00 in0.0 mm 0.00 in0.0 mm 0.00 in0.0 mm
10:50 PM 38.7°F3.7°C -8.8°F-22.7°C 12% 2.8 mph W4.5 kmh W 4.9 mph7.9 kmh 30.83 in1044.0 mb 0.00 in0.0 mm 0.00 in0.0 mm 0.00 in0.0 mm
10:55 PM 38.8°F3.8°C -8.3°F-22.4°C 13% 1.8 mph W2.9 kmh W 4.9 mph7.9 kmh 30.84 in1044.4 mb 0.00 in0.0 mm 0.00 in0.0 mm 0.00 in0.0 mm
11:00 PM 38.8°F3.8°C -7.6°F-22.0°C 13% 1.6 mph W2.6 kmh W 4.9 mph7.9 kmh 30.83 in1044.0 mb 0.00 in0.0 mm 0.00 in0.0 mm 0.00 in0.0 mm
11:05 PM 38.8°F3.8°C -6.5°F-21.4°C 14% 0.3 mph W0.5 kmh W 2.5 mph4.0 kmh 30.83 in1044.0 mb 0.00 in0.0 mm 0.00 in0.0 mm 0.00 in0.0 mm
11:10 PM 38.8°F3.8°C -6.1°F-21.2°C 14% 0.8 mph W1.3 kmh W 2.5 mph4.0 kmh 30.83 in1044.0 mb 0.00 in0.0 mm 0.00 in0.0 mm 0.00 in0.0 mm
11:15 PM 38.8°F3.8°C -5.3°F-20.7°C 15% Calm Calm -- 30.83 in1044.0 mb 0.00 in0.0 mm 0.00 in0.0 mm 0.00 in0.0 mm
11:20 PM 38.8°F3.8°C -4.9°F-20.5°C 15% Calm Calm -- 30.83 in1044.0 mb 0.00 in0.0 mm 0.00 in0.0 mm 0.00 in0.0 mm
11:25 PM 38.8°F3.8°C -4.5°F-20.3°C 15% Calm Calm -- 30.83 in1044.0 mb 0.00 in0.0 mm 0.00 in0.0 mm 0.00 in0.0 mm
11:30 PM 38.8°F3.8°C -4.1°F-20.1°C 16% 0.5 mph WNW0.8 kmh WNW 2.5 mph4.0 kmh 30.83 in1044.0 mb 0.00 in0.0 mm 0.00 in0.0 mm 0.00 in0.0 mm
11:35 PM 38.8°F3.8°C -2.5°F-19.2°C 17% 0.2 mph WNW0.3 kmh WNW 2.5 mph4.0 kmh 30.82 in1043.7 mb 0.00 in0.0 mm 0.00 in0.0 mm 0.00 in0.0 mm
11:40 PM 38.7°F3.7°C -2.1°F-18.9°C 17% 2.2 mph WNW3.5 kmh WNW 4.9 mph7.9 kmh 30.82 in1043.7 mb 0.00 in0.0 mm 0.00 in0.0 mm 0.00 in0.0 mm
11:45 PM 38.6°F3.7°C -1.5°F-18.6°C 18% 0.5 mph WNW0.8 kmh WNW 2.5 mph4.0 kmh 30.83 in1044.0 mb 0.00 in0.0 mm 0.00 in0.0 mm 0.00 in0.0 mm
11:50 PM 38.5°F3.6°C -0.7°F-18.2°C 18% Calm Calm -- 30.83 in1044.0 mb 0.00 in0.0 mm 0.00 in0.0 mm 0.00 in0.0 mm
11:55 PM 38.5°F3.6°C 0.0°F-17.8°C 19% Calm Calm -- 30.82 in1043.7 mb 0.00 in0.0 mm 0.00 in0.0 mm 0.00 in0.0 mm